createdAt,value
2022-09-07T00:01:35.078Z,19.70
2022-09-07T00:04:03.278Z,19.40
2022-09-07T00:06:34.617Z,19.40
2022-09-07T00:09:02.787Z,19.50
2022-09-07T00:11:30.149Z,19.50
2022-09-07T00:13:57.336Z,19.50
2022-09-07T00:16:26.455Z,19.80
2022-09-07T00:18:54.737Z,19.70
2022-09-07T00:21:22.147Z,19.30
2022-09-07T00:23:51.063Z,19.30
2022-09-07T00:26:20.973Z,19.40
2022-09-07T00:28:48.620Z,19.50
2022-09-07T00:31:17.812Z,19.20
2022-09-07T00:33:45.572Z,19.10
2022-09-07T00:36:12.859Z,19.10
2022-09-07T00:38:39.915Z,19.20
2022-09-07T00:41:08.627Z,19.20
2022-09-07T00:45:57.409Z,19.00
2022-09-07T00:48:29.188Z,19.10
2022-09-07T00:51:01.221Z,19.40
2022-09-07T00:53:31.114Z,20.10
2022-09-07T00:55:59.511Z,20.50
2022-09-07T00:58:27.418Z,20.70
2022-09-07T01:00:55.731Z,20.90
2022-09-07T01:03:27.189Z,20.90
2022-09-07T01:05:58.904Z,20.70
2022-09-07T01:08:26.284Z,20.40
2022-09-07T01:10:55.387Z,19.90
2022-09-07T01:13:23.592Z,20.10
2022-09-07T01:15:59.773Z,20.50
2022-09-07T01:18:38.025Z,20.50
2022-09-07T01:21:22.116Z,20.80
2022-09-07T01:24:15.139Z,20.90
2022-09-07T01:27:42.388Z,21.20
2022-09-07T01:30:12.578Z,21.10
2022-09-07T01:32:55.598Z,20.90
2022-09-07T01:35:29.503Z,21.00
2022-09-07T01:38:04.521Z,20.80
2022-09-07T01:40:40.016Z,20.70
2022-09-07T01:43:12.593Z,20.60
2022-09-07T01:45:43.153Z,20.70
2022-09-07T01:48:13.943Z,20.70
2022-09-07T01:50:45.723Z,20.50
2022-09-07T01:53:17.417Z,20.40
2022-09-07T01:55:48.228Z,20.30
2022-09-07T01:58:20.203Z,20.30
2022-09-07T02:00:53.811Z,20.20
2022-09-07T02:03:28.212Z,20.40
2022-09-07T02:05:58.869Z,20.30
2022-09-07T02:08:28.849Z,19.90
2022-09-07T02:11:01.956Z,20.10
2022-09-07T02:13:34.091Z,20.00
2022-09-07T02:16:06.950Z,20.00
2022-09-07T02:18:38.768Z,20.00
2022-09-07T02:21:09.247Z,19.70
2022-09-07T02:23:42.525Z,19.80
2022-09-07T02:26:15.242Z,19.80
2022-09-07T02:28:42.984Z,19.60
2022-09-07T02:31:11.817Z,19.90
2022-09-07T02:33:39.398Z,19.80
2022-09-07T02:36:07.300Z,19.70
2022-09-07T02:38:35.757Z,19.70
2022-09-07T02:41:03.998Z,19.90
2022-09-07T02:43:32.578Z,20.00
2022-09-07T02:46:17.698Z,19.80
2022-09-07T02:48:51.297Z,20.00
2022-09-07T02:51:27.143Z,20.00
2022-09-07T02:54:15.655Z,20.30
2022-09-07T02:56:55.959Z,20.40
2022-09-07T02:59:38.206Z,20.10
2022-09-07T03:02:14.185Z,20.10
2022-09-07T03:04:46.928Z,20.20
2022-09-07T03:07:17.386Z,20.20
2022-09-07T03:09:50.480Z,20.30
2022-09-07T03:12:34.174Z,20.60
2022-09-07T03:15:01.426Z,20.50
2022-09-07T03:17:31.021Z,20.40
2022-09-07T03:19:58.139Z,20.20
2022-09-07T03:22:25.289Z,20.20
2022-09-07T03:24:52.321Z,20.20
2022-09-07T03:27:19.517Z,20.20
2022-09-07T03:29:46.589Z,20.40
2022-09-07T03:32:15.924Z,20.40
2022-09-07T03:34:44.440Z,20.60
2022-09-07T03:37:11.482Z,20.60
2022-09-07T03:39:38.642Z,20.70
2022-09-07T03:42:05.974Z,20.70
2022-09-07T03:44:33.060Z,20.70
2022-09-07T03:47:00.141Z,20.70
2022-09-07T03:49:27.252Z,20.80
2022-09-07T03:51:55.632Z,20.60
2022-09-07T03:54:22.812Z,20.50
2022-09-07T03:56:50.028Z,20.60
2022-09-07T03:59:17.157Z,20.50
2022-09-07T04:01:44.437Z,20.50
2022-09-07T04:04:11.576Z,20.60
2022-09-07T04:06:38.664Z,20.50
2022-09-07T04:09:08.678Z,20.60
2022-09-07T04:11:35.922Z,20.60
2022-09-07T04:14:03.209Z,20.60
2022-09-07T04:16:31.130Z,20.70
2022-09-07T04:18:59.301Z,20.80
2022-09-07T04:21:28.916Z,20.90
2022-09-07T04:23:56.315Z,20.90
2022-09-07T04:26:26.922Z,21.00
2022-09-07T04:28:54.620Z,21.00
2022-09-07T04:31:22.715Z,21.00
2022-09-07T04:33:50.827Z,20.90
2022-09-07T04:36:19.090Z,20.90
2022-09-07T04:38:46.842Z,21.10
2022-09-07T04:41:16.602Z,21.10
2022-09-07T04:43:46.685Z,21.10
2022-09-07T04:46:18.345Z,21.10
2022-09-07T04:48:48.727Z,21.20
2022-09-07T04:51:16.864Z,21.20
2022-09-07T04:53:43.941Z,21.20
2022-09-07T04:56:15.024Z,21.20
2022-09-07T04:58:45.989Z,21.20
2022-09-07T05:01:15.503Z,21.10
2022-09-07T05:03:42.717Z,21.10
2022-09-07T05:06:10.320Z,21.30
2022-09-07T05:08:38.104Z,21.30
2022-09-07T05:11:05.748Z,21.40
2022-09-07T05:13:32.943Z,21.40
2022-09-07T05:16:07.241Z,21.40
2022-09-07T05:18:34.330Z,21.60
2022-09-07T05:21:08.514Z,21.50
2022-09-07T05:23:35.997Z,21.50
2022-09-07T05:26:04.198Z,21.50
2022-09-07T05:28:31.508Z,21.70
2022-09-07T05:31:21.454Z,21.60
2022-09-07T05:36:38.041Z,21.80
2022-09-07T05:39:10.270Z,21.90
2022-09-07T05:41:40.317Z,21.90
2022-09-07T05:46:55.947Z,22.10
2022-09-07T05:49:23.272Z,21.80
2022-09-07T05:51:50.383Z,21.80
2022-09-07T05:54:17.521Z,21.80
2022-09-07T05:56:44.622Z,21.70
2022-09-07T05:59:11.883Z,21.70
2022-09-07T06:01:39.034Z,21.70
2022-09-07T06:04:10.489Z,21.60
2022-09-07T06:06:40.786Z,21.60
2022-09-07T06:09:11.302Z,21.70
2022-09-07T06:11:38.732Z,21.90
2022-09-07T06:14:05.808Z,22.20
2022-09-07T06:16:34.915Z,21.60
2022-09-07T06:19:06.163Z,21.60
2022-09-07T06:21:37.101Z,21.90
2022-09-07T06:24:05.025Z,22.10
2022-09-07T06:26:32.449Z,22.10
2022-09-07T06:28:59.635Z,22.50
2022-09-07T06:31:28.511Z,22.50
2022-09-07T06:33:56.216Z,22.50
2022-09-07T06:36:25.082Z,22.50
2022-09-07T06:38:55.243Z,22.80
2022-09-07T06:44:11.652Z,23.00
2022-09-07T06:49:26.641Z,22.60
2022-09-07T06:51:53.788Z,22.60
2022-09-07T06:57:09.977Z,24.20
2022-09-07T06:59:37.694Z,25.30
2022-09-07T07:02:05.401Z,25.10
2022-09-07T07:04:37.781Z,25.00
2022-09-07T07:07:09.241Z,24.70
2022-09-07T07:09:37.971Z,24.40
2022-09-07T07:12:05.021Z,24.00
2022-09-07T07:14:34.595Z,23.90
2022-09-07T07:17:02.649Z,23.60
2022-09-07T07:19:29.614Z,23.30
2022-09-07T07:24:44.717Z,23.60
2022-09-07T07:27:11.985Z,23.70
2022-09-07T07:29:39.095Z,24.00
2022-09-07T07:32:06.239Z,25.30
2022-09-07T07:34:35.921Z,26.60
2022-09-07T07:37:03.134Z,27.70
2022-09-07T07:42:27.373Z,28.10
2022-09-07T07:47:48.348Z,28.40
2022-09-07T07:50:31.855Z,28.40
2022-09-07T07:55:47.650Z,28.00
2022-09-07T07:58:16.365Z,27.80
2022-09-07T08:00:54.318Z,27.50
2022-09-07T08:03:22.639Z,26.90
2022-09-07T08:05:49.738Z,26.70
2022-09-07T08:08:16.953Z,26.80
2022-09-07T08:10:46.023Z,27.50
2022-09-07T08:13:14.124Z,27.90
2022-09-07T08:15:46.209Z,28.20
2022-09-07T08:18:15.888Z,28.00
2022-09-07T08:20:43.690Z,28.30
2022-09-07T08:23:11.632Z,28.20
2022-09-07T08:25:38.855Z,28.50
2022-09-07T08:28:05.955Z,28.20
2022-09-07T08:30:33.147Z,28.50
2022-09-07T08:33:01.632Z,28.70
2022-09-07T08:35:28.648Z,29.10
2022-09-07T08:37:55.954Z,29.40
2022-09-07T08:40:22.998Z,29.70
2022-09-07T08:43:03.096Z,30.30
2022-09-07T08:45:34.848Z,30.70
2022-09-07T08:48:05.145Z,31.20
2022-09-07T08:50:38.021Z,31.10
2022-09-07T08:53:12.487Z,30.60
2022-09-07T08:55:43.228Z,30.50
2022-09-07T08:58:32.255Z,31.10
2022-09-07T09:06:46.319Z,32.70
2022-09-07T09:09:23.578Z,32.50
2022-09-07T09:11:58.467Z,31.60
2022-09-07T09:14:37.635Z,31.50
2022-09-07T09:17:09.731Z,32.30
2022-09-07T09:19:51.200Z,33.30
2022-09-07T09:22:20.676Z,33.40
2022-09-07T09:24:49.646Z,33.60
2022-09-07T09:27:16.700Z,33.70
2022-09-07T09:29:43.805Z,33.20
2022-09-07T09:32:36.771Z,33.30
2022-09-07T09:35:14.703Z,33.40
2022-09-07T09:37:43.616Z,33.60
2022-09-07T09:40:23.282Z,33.90
2022-09-07T09:43:02.850Z,34.20
2022-09-07T09:46:12.236Z,34.90
2022-09-07T09:48:26.804Z,35.60
2022-09-07T09:53:55.898Z,36.20
2022-09-07T09:56:35.242Z,36.20
2022-09-07T10:05:30.732Z,35.80
2022-09-07T10:07:59.279Z,36.20
2022-09-07T10:10:27.958Z,36.50
2022-09-07T10:12:56.170Z,36.50
2022-09-07T10:15:32.881Z,36.60
2022-09-07T10:18:04.556Z,36.70
2022-09-07T10:20:34.987Z,36.20
2022-09-07T10:23:04.846Z,36.20
2022-09-07T10:25:34.380Z,36.30
2022-09-07T10:28:04.982Z,36.30
2022-09-07T10:30:40.887Z,36.20
2022-09-07T10:33:16.729Z,36.30
2022-09-07T10:35:50.571Z,36.70
2022-09-07T10:38:21.093Z,36.60
2022-09-07T10:40:53.784Z,35.60
2022-09-07T10:43:34.598Z,35.30
2022-09-07T10:46:59.671Z,35.30
2022-09-07T10:49:31.697Z,36.40
2022-09-07T10:52:09.144Z,37.00
2022-09-07T10:54:48.822Z,37.10
2022-09-07T10:57:36.933Z,37.10
2022-09-07T11:00:12.920Z,37.30
2022-09-07T11:05:54.085Z,37.50
2022-09-07T11:09:15.080Z,37.60
2022-09-07T11:14:19.737Z,37.80
2022-09-07T11:16:51.808Z,37.00
2022-09-07T11:19:39.231Z,37.10
2022-09-07T11:22:18.995Z,37.90
2022-09-07T11:25:29.142Z,38.20
2022-09-07T11:27:42.545Z,38.50
2022-09-07T11:30:19.831Z,38.30
2022-09-07T11:32:53.147Z,38.10
2022-09-07T11:35:31.440Z,37.10
2022-09-07T11:38:03.723Z,36.70
2022-09-07T11:40:34.078Z,36.00
2022-09-07T11:43:11.442Z,35.40
2022-09-07T11:45:44.117Z,36.40
2022-09-07T11:48:19.540Z,36.60
2022-09-07T11:50:52.071Z,36.40
2022-09-07T11:53:23.068Z,35.60
2022-09-07T11:55:54.074Z,34.80
2022-09-07T11:58:49.282Z,34.40
2022-09-07T12:01:26.814Z,33.80
2022-09-07T12:04:15.446Z,34.00
2022-09-07T12:07:05.573Z,33.60
2022-09-07T12:10:08.512Z,33.10
2022-09-07T12:12:51.984Z,32.80
2022-09-07T12:15:30.408Z,32.40
2022-09-07T12:18:21.220Z,32.30
2022-09-07T12:20:49.175Z,32.30
2022-09-07T12:23:25.366Z,32.00
2022-09-07T12:25:53.152Z,31.70
2022-09-07T12:28:55.847Z,31.60
2022-09-07T12:31:57.851Z,31.50
2022-09-07T12:34:49.396Z,32.90
2022-09-07T12:37:41.376Z,33.60
2022-09-07T12:40:58.866Z,32.80
2022-09-07T12:43:47.046Z,32.30
2022-09-07T12:46:43.974Z,32.50
2022-09-07T12:49:37.866Z,33.10
2022-09-07T12:52:31.662Z,34.00
2022-09-07T12:55:27.064Z,34.80
2022-09-07T12:58:04.558Z,35.80
2022-09-07T13:00:47.828Z,34.90
2022-09-07T13:03:56.134Z,35.10
2022-09-07T13:09:34.779Z,33.40
2022-09-07T13:12:04.858Z,32.60
2022-09-07T13:14:38.377Z,32.90
2022-09-07T13:17:42.087Z,33.60
2022-09-07T13:20:34.842Z,34.60
2022-09-07T13:23:22.983Z,34.90
2022-09-07T13:25:57.121Z,34.40
2022-09-07T13:28:40.147Z,34.00
2022-09-07T13:31:32.236Z,34.30
2022-09-07T13:34:00.583Z,34.40
2022-09-07T13:36:38.877Z,34.30
2022-09-07T13:39:14.441Z,34.10
2022-09-07T13:41:46.613Z,34.40
2022-09-07T13:44:26.192Z,34.00
2022-09-07T13:47:08.788Z,34.10
2022-09-07T13:49:56.178Z,34.00
2022-09-07T13:52:30.740Z,33.90
2022-09-07T13:55:10.796Z,33.60
2022-09-07T13:57:47.238Z,33.90
2022-09-07T14:00:15.335Z,33.80
2022-09-07T14:02:42.883Z,33.30
2022-09-07T14:05:17.037Z,33.20
2022-09-07T14:07:46.006Z,33.20
2022-09-07T14:10:19.700Z,33.40
2022-09-07T14:12:50.606Z,32.90
2022-09-07T14:15:21.191Z,32.80
2022-09-07T14:17:50.138Z,33.10
2022-09-07T14:20:18.474Z,33.40
2022-09-07T14:22:53.181Z,33.70
2022-09-07T14:28:41.609Z,34.30
2022-09-07T14:31:15.869Z,34.20
2022-09-07T14:34:00.206Z,34.20
2022-09-07T14:36:47.460Z,34.20
2022-09-07T14:39:16.761Z,34.00
2022-09-07T14:41:49.103Z,33.50
2022-09-07T14:44:31.696Z,33.40
2022-09-07T14:47:02.195Z,33.80
2022-09-07T14:49:29.726Z,34.00
2022-09-07T14:51:57.233Z,34.10
2022-09-07T14:54:27.821Z,34.00
2022-09-07T14:57:04.397Z,33.90
2022-09-07T14:59:41.311Z,33.90
2022-09-07T15:02:29.832Z,34.10
2022-09-07T15:05:34.396Z,33.60
2022-09-07T15:08:02.837Z,33.40
2022-09-07T15:10:37.172Z,33.00
2022-09-07T15:13:27.151Z,32.70
2022-09-07T15:16:01.460Z,32.80
2022-09-07T15:18:54.236Z,32.70
2022-09-07T15:21:22.719Z,32.50
2022-09-07T15:23:51.206Z,32.60
2022-09-07T15:29:11.140Z,32.50
2022-09-07T15:31:59.335Z,32.00
2022-09-07T15:34:29.778Z,31.50
2022-09-07T15:37:00.823Z,31.20
2022-09-07T15:39:29.764Z,31.00
2022-09-07T15:41:58.153Z,30.70
2022-09-07T15:44:28.883Z,30.60
2022-09-07T15:49:49.482Z,30.60
2022-09-07T15:52:17.739Z,30.40
2022-09-07T15:54:45.167Z,30.20
2022-09-07T16:00:00.925Z,30.30
2022-09-07T16:05:15.412Z,30.40
2022-09-07T16:10:31.643Z,29.90
2022-09-07T16:13:01.794Z,30.00
2022-09-07T16:15:31.224Z,29.80
2022-09-07T16:17:58.562Z,29.80
2022-09-07T16:20:25.841Z,29.80
2022-09-07T16:25:42.260Z,29.70
2022-09-07T16:28:10.476Z,29.60
2022-09-07T16:30:40.960Z,29.50
2022-09-07T16:33:08.446Z,29.50
2022-09-07T16:35:35.595Z,29.60
2022-09-07T16:40:50.787Z,29.40
2022-09-07T16:43:17.860Z,29.20
2022-09-07T16:48:34.996Z,29.30
2022-09-07T16:51:02.994Z,29.20
2022-09-07T16:53:32.200Z,29.10
2022-09-07T16:56:02.887Z,29.10
2022-09-07T16:58:38.733Z,29.20
2022-09-07T17:01:09.125Z,29.10
2022-09-07T17:03:38.018Z,29.00
2022-09-07T17:06:07.466Z,29.00
2022-09-07T17:08:35.732Z,28.80
2022-09-07T17:11:05.102Z,28.80
2022-09-07T17:13:33.199Z,28.80
2022-09-07T17:16:04.228Z,28.70
2022-09-07T17:21:20.279Z,28.70
2022-09-07T17:23:54.397Z,28.80
2022-09-07T17:26:27.392Z,28.80
2022-09-07T17:28:56.555Z,28.80
2022-09-07T17:34:14.337Z,28.70
2022-09-07T17:36:42.573Z,28.60
2022-09-07T17:39:18.850Z,28.50
2022-09-07T17:41:46.612Z,28.50
2022-09-07T17:44:13.802Z,28.50
2022-09-07T17:46:41.076Z,28.40
2022-09-07T17:49:12.223Z,28.20
2022-09-07T17:51:41.133Z,28.10
2022-09-07T17:54:11.898Z,28.00
2022-09-07T17:56:42.200Z,27.80
2022-09-07T18:02:00.902Z,27.50
2022-09-07T18:04:28.648Z,27.40
2022-09-07T18:06:57.281Z,27.20
2022-09-07T18:09:24.702Z,27.00
2022-09-07T18:11:52.060Z,26.90
2022-09-07T18:14:19.687Z,26.80
2022-09-07T18:16:49.834Z,26.80
2022-09-07T18:19:18.323Z,26.70
2022-09-07T18:21:45.740Z,26.60
2022-09-07T18:24:17.060Z,26.60
2022-09-07T18:26:50.182Z,26.50
2022-09-07T18:29:28.729Z,26.50
2022-09-07T18:31:57.589Z,26.40
2022-09-07T18:34:24.876Z,26.20
2022-09-07T18:36:52.170Z,26.20
2022-09-07T18:39:20.611Z,26.10
2022-09-07T18:41:47.846Z,26.00
2022-09-07T18:47:02.455Z,25.80
2022-09-07T18:49:29.620Z,25.70
2022-09-07T18:54:45.143Z,25.50
2022-09-07T18:57:12.924Z,25.50
2022-09-07T18:59:40.996Z,25.30
2022-09-07T19:02:09.437Z,25.30
2022-09-07T19:07:29.015Z,25.20
2022-09-07T19:09:58.361Z,25.20
2022-09-07T19:12:26.259Z,25.20
2022-09-07T19:14:53.424Z,25.10
2022-09-07T19:17:20.630Z,25.00
2022-09-07T19:19:48.717Z,24.70
2022-09-07T19:22:15.810Z,24.50
2022-09-07T19:24:42.935Z,24.40
2022-09-07T19:27:11.333Z,24.40
2022-09-07T19:29:38.419Z,24.30
2022-09-07T19:32:06.861Z,24.20
2022-09-07T19:34:36.160Z,24.10
2022-09-07T19:37:04.298Z,24.10
2022-09-07T19:39:31.508Z,24.10
2022-09-07T19:41:58.765Z,24.10
2022-09-07T19:44:28.114Z,24.10
2022-09-07T19:46:55.596Z,24.10
2022-09-07T19:49:23.572Z,24.10
2022-09-07T19:51:51.969Z,24.10
2022-09-07T19:54:19.584Z,24.00
2022-09-07T19:56:46.678Z,24.00
2022-09-07T19:59:14.559Z,23.90
2022-09-07T20:01:46.327Z,23.80
2022-09-07T20:04:20.372Z,23.70
2022-09-07T20:06:50.084Z,23.70
2022-09-07T20:09:19.900Z,23.70
2022-09-07T20:11:47.789Z,23.60
2022-09-07T20:14:18.279Z,23.50
2022-09-07T20:16:46.787Z,23.40
2022-09-07T20:19:14.908Z,23.30
2022-09-07T20:21:42.970Z,23.20
2022-09-07T20:24:11.632Z,23.20
2022-09-07T20:26:38.723Z,23.20
2022-09-07T20:31:54.523Z,23.00
2022-09-07T20:34:21.871Z,23.00
2022-09-07T20:36:49.628Z,23.10
2022-09-07T20:39:16.848Z,23.10
2022-09-07T20:41:44.403Z,23.20
2022-09-07T20:44:11.969Z,23.20
2022-09-07T20:46:39.095Z,23.10
2022-09-07T20:49:07.764Z,23.00
2022-09-07T20:51:35.347Z,22.90
2022-09-07T20:54:04.387Z,22.80
2022-09-07T20:56:31.818Z,22.70
2022-09-07T20:59:00.593Z,22.70
2022-09-07T21:01:28.927Z,22.70
2022-09-07T21:03:58.243Z,22.60
2022-09-07T21:06:28.144Z,22.60
2022-09-07T21:08:57.143Z,22.60
2022-09-07T21:11:25.708Z,22.50
2022-09-07T21:13:56.932Z,22.50
2022-09-07T21:16:24.336Z,22.40
2022-09-07T21:18:54.419Z,22.50
2022-09-07T21:21:21.917Z,22.50
2022-09-07T21:23:55.347Z,22.60
2022-09-07T21:26:22.818Z,22.60
2022-09-07T21:28:55.040Z,22.70
2022-09-07T21:31:22.274Z,22.80
2022-09-07T21:33:52.768Z,22.90
2022-09-07T21:36:19.900Z,22.90
2022-09-07T21:38:47.005Z,23.00
2022-09-07T21:41:17.386Z,23.10
2022-09-07T21:43:44.819Z,23.10
2022-09-07T21:46:13.725Z,22.90
2022-09-07T21:48:41.215Z,23.10
2022-09-07T21:51:08.665Z,23.20
2022-09-07T21:53:35.775Z,23.20
2022-09-07T21:56:05.250Z,23.30
2022-09-07T21:58:33.790Z,23.30
2022-09-07T22:01:12.736Z,23.30
2022-09-07T22:03:40.611Z,23.10
2022-09-07T22:06:08.128Z,23.00
2022-09-07T22:08:35.873Z,22.90
2022-09-07T22:11:05.135Z,22.80
2022-09-07T22:13:34.376Z,22.80
2022-09-07T22:16:02.142Z,22.80
2022-09-07T22:18:32.353Z,22.80
2022-09-07T22:21:04.471Z,22.90
2022-09-07T22:23:32.154Z,23.00
2022-09-07T22:25:59.462Z,23.10
2022-09-07T22:28:28.304Z,23.10
2022-09-07T22:30:57.188Z,23.20
2022-09-07T22:33:24.332Z,23.20
2022-09-07T22:35:51.445Z,23.20
2022-09-07T22:38:18.440Z,23.10
2022-09-07T22:40:45.549Z,23.20
2022-09-07T22:43:12.671Z,23.20
2022-09-07T22:45:39.824Z,23.30
2022-09-07T22:48:08.275Z,23.30
2022-09-07T22:50:35.384Z,23.30
2022-09-07T22:53:02.451Z,23.20
2022-09-07T22:55:29.483Z,23.20
2022-09-07T22:57:56.490Z,23.20
2022-09-07T23:00:23.577Z,23.10
2022-09-07T23:02:50.886Z,23.10
2022-09-07T23:05:19.287Z,23.20
2022-09-07T23:07:48.627Z,23.30
2022-09-07T23:10:16.043Z,23.40
2022-09-07T23:12:43.294Z,23.40
2022-09-07T23:15:10.661Z,23.50
2022-09-07T23:17:37.700Z,23.50
2022-09-07T23:20:05.565Z,23.70
2022-09-07T23:22:34.549Z,23.80
2022-09-07T23:25:01.657Z,23.70
2022-09-07T23:27:28.966Z,23.50
2022-09-07T23:29:56.016Z,23.40
2022-09-07T23:32:23.136Z,23.40
2022-09-07T23:34:50.152Z,23.30
2022-09-07T23:37:17.514Z,23.40
2022-09-07T23:39:46.060Z,23.20
2022-09-07T23:42:13.116Z,23.20
2022-09-07T23:44:40.273Z,23.20
2022-09-07T23:47:07.363Z,23.30
2022-09-07T23:49:35.072Z,23.30
2022-09-07T23:52:02.782Z,23.30
2022-09-07T23:54:29.925Z,23.30
2022-09-07T23:56:58.285Z,23.30
2022-09-07T23:59:25.373Z,23.30
